sensor_id;sensor_type;location;lat;lon;timestamp;pressure;altitude;pressure_sealevel;temperature;humidity
70302;BME280;57706;56.326;43.882;2023-04-09T00:00:07;101981.94;;;2.35;51.25
70302;BME280;57706;56.326;43.882;2023-04-09T00:02:38;101982.94;;;2.32;50.98
70302;BME280;57706;56.326;43.882;2023-04-09T00:05:04;101980.47;;;2.29;50.85
70302;BME280;57706;56.326;43.882;2023-04-09T00:07:30;101987.50;;;2.27;50.72
70302;BME280;57706;56.326;43.882;2023-04-09T00:09:56;101986.00;;;2.22;51.42
70302;BME280;57706;56.326;43.882;2023-04-09T00:12:22;101977.59;;;2.16;51.55
70302;BME280;57706;56.326;43.882;2023-04-09T00:14:48;101977.72;;;2.13;51.55
70302;BME280;57706;56.326;43.882;2023-04-09T00:17:13;101983.03;;;2.10;52.32
70302;BME280;57706;56.326;43.882;2023-04-09T00:19:40;101984.09;;;2.06;52.25
70302;BME280;57706;56.326;43.882;2023-04-09T00:22:06;101977.34;;;2.02;52.65
70302;BME280;57706;56.326;43.882;2023-04-09T00:24:31;101973.94;;;2.01;52.81
70302;BME280;57706;56.326;43.882;2023-04-09T00:26:57;101981.75;;;2.00;52.60
70302;BME280;57706;56.326;43.882;2023-04-09T00:29:23;101980.22;;;1.96;52.82
70302;BME280;57706;56.326;43.882;2023-04-09T00:31:48;101979.44;;;1.93;52.45
70302;BME280;57706;56.326;43.882;2023-04-09T00:34:14;101987.34;;;1.90;53.53
70302;BME280;57706;56.326;43.882;2023-04-09T00:36:40;101987.34;;;1.90;53.64
70302;BME280;57706;56.326;43.882;2023-04-09T00:39:06;101982.22;;;1.89;52.81
70302;BME280;57706;56.326;43.882;2023-04-09T00:41:32;101978.16;;;1.83;53.37
70302;BME280;57706;56.326;43.882;2023-04-09T00:43:58;101980.75;;;1.83;53.50
70302;BME280;57706;56.326;43.882;2023-04-09T00:46:23;101978.22;;;1.82;53.14
70302;BME280;57706;56.326;43.882;2023-04-09T00:48:49;101975.81;;;1.77;54.02
70302;BME280;57706;56.326;43.882;2023-04-09T00:51:15;101977.78;;;1.72;54.29
70302;BME280;57706;56.326;43.882;2023-04-09T00:53:41;101977.06;;;1.68;54.02
70302;BME280;57706;56.326;43.882;2023-04-09T00:56:09;101978.03;;;1.65;53.73
70302;BME280;57706;56.326;43.882;2023-04-09T00:58:35;101978.03;;;1.65;54.54
70302;BME280;57706;56.326;43.882;2023-04-09T01:01:02;101975.66;;;1.61;54.79
70302;BME280;57706;56.326;43.882;2023-04-09T01:03:28;101984.44;;;1.57;54.07
70302;BME280;57706;56.326;43.882;2023-04-09T01:14:11;101989.44;;;1.41;55.71
70302;BME280;57706;56.326;43.882;2023-04-09T01:16:41;101988.53;;;1.42;55.79
70302;BME280;57706;56.326;43.882;2023-04-09T01:19:18;101987.75;;;1.40;56.32
70302;BME280;57706;56.326;43.882;2023-04-09T01:21:48;101989.56;;;1.37;56.34
70302;BME280;57706;56.326;43.882;2023-04-09T01:27:05;101986.16;;;1.35;55.90
70302;BME280;57706;56.326;43.882;2023-04-09T01:29:45;101988.00;;;1.33;56.57
70302;BME280;57706;56.326;43.882;2023-04-09T01:32:13;101982.09;;;1.30;57.36
70302;BME280;57706;56.326;43.882;2023-04-09T01:34:41;101980.47;;;1.27;56.97
70302;BME280;57706;56.326;43.882;2023-04-09T01:37:08;101980.47;;;1.27;56.94
70302;BME280;57706;56.326;43.882;2023-04-09T01:39:36;101982.28;;;1.25;56.46
70302;BME280;57706;56.326;43.882;2023-04-09T01:42:02;101986.78;;;1.20;57.48
70302;BME280;57706;56.326;43.882;2023-04-09T01:44:29;101989.66;;;1.14;57.61
70302;BME280;57706;56.326;43.882;2023-04-09T01:46:56;101981.88;;;1.14;57.37
70302;BME280;57706;56.326;43.882;2023-04-09T01:49:23;101982.72;;;1.14;57.96
70302;BME280;57706;56.326;43.882;2023-04-09T01:51:49;101989.75;;;1.10;57.59
70302;BME280;57706;56.326;43.882;2023-04-09T01:54:15;101994.03;;;1.12;56.54
70302;BME280;57706;56.326;43.882;2023-04-09T01:56:46;101992.44;;;1.09;57.70
70302;BME280;57706;56.326;43.882;2023-04-09T01:59:13;102001.03;;;1.09;57.66
70302;BME280;57706;56.326;43.882;2023-04-09T02:04:22;102001.03;;;1.09;56.80
70302;BME280;57706;56.326;43.882;2023-04-09T02:07:09;101993.44;;;1.05;57.78
70302;BME280;57706;56.326;43.882;2023-04-09T02:09:36;101997.00;;;1.02;57.39
70302;BME280;57706;56.326;43.882;2023-04-09T02:12:05;101998.63;;;1.05;57.12
70302;BME280;57706;56.326;43.882;2023-04-09T02:14:33;102001.38;;;1.00;57.67
70302;BME280;57706;56.326;43.882;2023-04-09T02:17:00;102001.25;;;1.03;57.28
70302;BME280;57706;56.326;43.882;2023-04-09T02:19:55;102005.47;;;1.06;57.47
70302;BME280;57706;56.326;43.882;2023-04-09T02:22:21;102002.84;;;1.07;57.47
70302;BME280;57706;56.326;43.882;2023-04-09T02:24:47;102004.53;;;1.08;56.93
70302;BME280;57706;56.326;43.882;2023-04-09T02:27:13;102004.53;;;1.08;57.41
70302;BME280;57706;56.326;43.882;2023-04-09T02:29:39;102003.50;;;1.13;56.98
70302;BME280;57706;56.326;43.882;2023-04-09T02:32:06;102000.00;;;1.14;57.13
70302;BME280;57706;56.326;43.882;2023-04-09T02:34:32;102001.66;;;1.16;57.44
70302;BME280;57706;56.326;43.882;2023-04-09T02:36:57;102004.16;;;1.18;56.89
70302;BME280;57706;56.326;43.882;2023-04-09T02:39:23;102000.66;;;1.19;56.97
70302;BME280;57706;56.326;43.882;2023-04-09T02:41:49;102001.28;;;1.26;57.52
70302;BME280;57706;56.326;43.882;2023-04-09T02:44:15;101996.53;;;1.35;56.74
70302;BME280;57706;56.326;43.882;2023-04-09T02:46:41;102004.72;;;1.47;56.48
70302;BME280;57706;56.326;43.882;2023-04-09T02:49:07;101993.22;;;1.54;56.38
70302;BME280;57706;56.326;43.882;2023-04-09T02:51:36;101995.59;;;1.59;56.32
70302;BME280;57706;56.326;43.882;2023-04-09T02:54:02;101994.50;;;1.64;56.28
70302;BME280;57706;56.326;43.882;2023-04-09T02:56:28;101997.66;;;1.71;56.14
70302;BME280;57706;56.326;43.882;2023-04-09T02:58:54;102000.84;;;1.78;55.98
70302;BME280;57706;56.326;43.882;2023-04-09T03:01:20;101998.75;;;1.86;55.48
70302;BME280;57706;56.326;43.882;2023-04-09T03:03:46;102005.38;;;1.93;55.68
70302;BME280;57706;56.326;43.882;2023-04-09T03:06:12;102000.78;;;2.00;55.66
70302;BME280;57706;56.326;43.882;2023-04-09T03:08:38;101996.91;;;2.09;54.90
70302;BME280;57706;56.326;43.882;2023-04-09T03:11:04;101999.09;;;2.18;55.22
70302;BME280;57706;56.326;43.882;2023-04-09T03:13:30;101999.59;;;2.27;55.33
70302;BME280;57706;56.326;43.882;2023-04-09T03:15:55;101999.28;;;2.34;55.34
70302;BME280;57706;56.326;43.882;2023-04-09T03:18:21;102001.41;;;2.45;54.94
70302;BME280;57706;56.326;43.882;2023-04-09T03:20:47;102000.06;;;2.56;54.69
70302;BME280;57706;56.326;43.882;2023-04-09T03:23:14;102008.19;;;2.67;53.95
70302;BME280;57706;56.326;43.882;2023-04-09T03:25:44;102008.53;;;2.79;53.78
70302;BME280;57706;56.326;43.882;2023-04-09T03:28:13;102000.16;;;2.91;53.68
70302;BME280;57706;56.326;43.882;2023-04-09T03:30:42;101997.06;;;3.02;53.44
70302;BME280;57706;56.326;43.882;2023-04-09T03:33:08;101999.97;;;3.13;52.71
70302;BME280;57706;56.326;43.882;2023-04-09T03:35:44;102007.41;;;3.21;52.99
70302;BME280;57706;56.326;43.882;2023-04-09T03:38:11;101998.25;;;3.32;52.77
70302;BME280;57706;56.326;43.882;2023-04-09T03:40:37;102001.00;;;3.46;52.36
70302;BME280;57706;56.326;43.882;2023-04-09T03:43:03;102003.91;;;3.57;52.41
70302;BME280;57706;56.326;43.882;2023-04-09T03:45:31;102006.78;;;3.69;51.85
70302;BME280;57706;56.326;43.882;2023-04-09T03:48:10;101997.75;;;3.76;52.15
70302;BME280;57706;56.326;43.882;2023-04-09T03:50:38;101996.84;;;3.77;52.07
70302;BME280;57706;56.326;43.882;2023-04-09T03:53:05;101987.91;;;3.83;51.98
70302;BME280;57706;56.326;43.882;2023-04-09T03:55:31;101993.44;;;3.93;51.61
70302;BME280;57706;56.326;43.882;2023-04-09T03:58:00;101987.38;;;4.10;51.28
70302;BME280;57706;56.326;43.882;2023-04-09T04:00:30;101987.66;;;4.21;50.60
70302;BME280;57706;56.326;43.882;2023-04-09T04:03:12;101984.28;;;4.35;50.06
70302;BME280;57706;56.326;43.882;2023-04-09T04:06:01;101985.50;;;4.46;50.00
70302;BME280;57706;56.326;43.882;2023-04-09T04:08:32;101990.88;;;4.59;49.84
70302;BME280;57706;56.326;43.882;2023-04-09T04:11:02;101993.25;;;4.63;49.75
70302;BME280;57706;56.326;43.882;2023-04-09T04:13:29;101990.97;;;4.73;49.99
70302;BME280;57706;56.326;43.882;2023-04-09T04:15:56;101992.53;;;4.76;49.58
70302;BME280;57706;56.326;43.882;2023-04-09T04:18:23;101997.84;;;4.90;49.79
70302;BME280;57706;56.326;43.882;2023-04-09T04:20:51;101983.94;;;5.06;49.35
70302;BME280;57706;56.326;43.882;2023-04-09T04:23:16;101987.44;;;5.21;48.82
70302;BME280;57706;56.326;43.882;2023-04-09T04:25:52;101979.34;;;5.26;48.55
70302;BME280;57706;56.326;43.882;2023-04-09T04:28:23;101987.41;;;5.37;48.73
70302;BME280;57706;56.326;43.882;2023-04-09T04:30:49;101977.19;;;5.48;48.47
70302;BME280;57706;56.326;43.882;2023-04-09T04:33:15;101974.16;;;5.56;48.33
70302;BME280;57706;56.326;43.882;2023-04-09T04:35:49;101971.16;;;5.77;47.40
70302;BME280;57706;56.326;43.882;2023-04-09T04:38:39;101974.53;;;5.93;47.19
70302;BME280;57706;56.326;43.882;2023-04-09T04:41:11;101971.31;;;6.04;47.09
70302;BME280;57706;56.326;43.882;2023-04-09T04:43:42;101966.25;;;6.16;46.93
70302;BME280;57706;56.326;43.882;2023-04-09T04:46:15;101965.31;;;6.17;46.67
70302;BME280;57706;56.326;43.882;2023-04-09T04:48:40;101969.00;;;6.42;46.12
70302;BME280;57706;56.326;43.882;2023-04-09T04:51:06;101972.47;;;6.42;46.64
70302;BME280;57706;56.326;43.882;2023-04-09T04:53:40;101976.38;;;6.50;45.28
70302;BME280;57706;56.326;43.882;2023-04-09T04:56:13;101975.84;;;6.72;45.17
70302;BME280;57706;56.326;43.882;2023-04-09T04:58:46;101977.22;;;7.05;42.89
70302;BME280;57706;56.326;43.882;2023-04-09T05:01:14;101975.59;;;7.30;42.55
70302;BME280;57706;56.326;43.882;2023-04-09T05:03:41;101985.25;;;7.42;40.49
70302;BME280;57706;56.326;43.882;2023-04-09T05:06:42;101975.22;;;7.49;39.75
70302;BME280;57706;56.326;43.882;2023-04-09T05:09:12;101980.94;;;7.41;37.46
70302;BME280;57706;56.326;43.882;2023-04-09T05:11:46;101983.50;;;7.56;38.51
70302;BME280;57706;56.326;43.882;2023-04-09T05:16:00;101981.91;;;8.18;37.75
70302;BME280;57706;56.326;43.882;2023-04-09T05:18:30;101974.19;;;8.78;36.71
70302;BME280;57706;56.326;43.882;2023-04-09T05:20:56;101976.28;;;9.33;35.01
70302;BME280;57706;56.326;43.882;2023-04-09T05:23:22;101974.97;;;9.86;34.46
70302;BME280;57706;56.326;43.882;2023-04-09T05:25:49;101970.16;;;10.26;33.63
70302;BME280;57706;56.326;43.882;2023-04-09T05:28:32;101969.47;;;10.79;33.00
70302;BME280;57706;56.326;43.882;2023-04-09T05:31:08;101973.41;;;10.73;32.95
70302;BME280;57706;56.326;43.882;2023-04-09T05:33:41;101972.09;;;9.78;34.31
70302;BME280;57706;56.326;43.882;2023-04-09T05:36:16;101974.25;;;9.26;35.36
70302;BME280;57706;56.326;43.882;2023-04-09T05:38:46;101975.28;;;9.47;35.11
70302;BME280;57706;56.326;43.882;2023-04-09T05:41:12;101980.88;;;9.54;35.08
70302;BME280;57706;56.326;43.882;2023-04-09T05:43:47;101979.13;;;9.66;34.64
70302;BME280;57706;56.326;43.882;2023-04-09T05:46:13;101973.50;;;9.71;34.40
70302;BME280;57706;56.326;43.882;2023-04-09T05:48:39;101973.75;;;9.79;34.57
70302;BME280;57706;56.326;43.882;2023-04-09T05:51:05;101980.91;;;10.00;34.60
70302;BME280;57706;56.326;43.882;2023-04-09T05:53:33;101978.16;;;10.24;34.77
70302;BME280;57706;56.326;43.882;2023-04-09T05:55:58;101975.06;;;10.42;34.26
70302;BME280;57706;56.326;43.882;2023-04-09T05:58:32;101976.00;;;10.52;34.20
70302;BME280;57706;56.326;43.882;2023-04-09T06:00:58;101978.44;;;10.77;33.79
70302;BME280;57706;56.326;43.882;2023-04-09T06:03:24;101980.84;;;11.01;33.22
70302;BME280;57706;56.326;43.882;2023-04-09T06:05:49;101980.25;;;11.30;32.87
70302;BME280;57706;56.326;43.882;2023-04-09T06:08:15;101984.97;;;11.57;32.13
70302;BME280;57706;56.326;43.882;2023-04-09T06:10:41;101989.69;;;11.85;31.73
70302;BME280;57706;56.326;43.882;2023-04-09T06:13:07;101985.25;;;11.86;30.69
70302;BME280;57706;56.326;43.882;2023-04-09T06:15:36;101987.91;;;12.17;29.92
70302;BME280;57706;56.326;43.882;2023-04-09T06:18:02;101980.06;;;12.36;28.73
70302;BME280;57706;56.326;43.882;2023-04-09T06:20:28;101987.44;;;12.62;28.47
70302;BME280;57706;56.326;43.882;2023-04-09T06:22:54;101984.72;;;13.03;27.89
70302;BME280;57706;56.326;43.882;2023-04-09T06:25:19;101991.03;;;13.40;27.31
70302;BME280;57706;56.326;43.882;2023-04-09T06:27:46;101986.03;;;13.37;24.97
70302;BME280;57706;56.326;43.882;2023-04-09T06:30:12;101982.25;;;13.97;25.18
70302;BME280;57706;56.326;43.882;2023-04-09T06:32:37;101982.19;;;14.63;24.48
70302;BME280;57706;56.326;43.882;2023-04-09T06:35:04;101989.91;;;15.37;23.41
70302;BME280;57706;56.326;43.882;2023-04-09T06:37:30;101979.91;;;16.10;22.68
70302;BME280;57706;56.326;43.882;2023-04-09T06:39:55;101980.41;;;17.80;21.14
70302;BME280;57706;56.326;43.882;2023-04-09T06:42:21;101977.16;;;23.65;17.24
70302;BME280;57706;56.326;43.882;2023-04-09T06:44:54;101982.88;;;28.88;11.95
70302;BME280;57706;56.326;43.882;2023-04-09T06:47:20;101964.50;;;31.94;10.38
70302;BME280;57706;56.326;43.882;2023-04-09T06:49:45;101956.16;;;33.85;9.35
70302;BME280;57706;56.326;43.882;2023-04-09T06:52:11;101959.63;;;33.90;7.59
70302;BME280;57706;56.326;43.882;2023-04-09T06:54:37;101958.28;;;36.21;7.80
70302;BME280;57706;56.326;43.882;2023-04-09T06:57:05;101958.31;;;38.16;5.72
70302;BME280;57706;56.326;43.882;2023-04-09T06:59:31;101949.31;;;37.70;5.46
70302;BME280;57706;56.326;43.882;2023-04-09T07:01:59;101950.47;;;39.40;5.65
70302;BME280;57706;56.326;43.882;2023-04-09T07:04:25;101945.44;;;40.81;5.23
70302;BME280;57706;56.326;43.882;2023-04-09T07:06:51;101945.06;;;41.34;4.56
70302;BME280;57706;56.326;43.882;2023-04-09T07:09:19;101936.38;;;42.74;4.34
70302;BME280;57706;56.326;43.882;2023-04-09T07:11:45;101933.81;;;43.80;3.94
70302;BME280;57706;56.326;43.882;2023-04-09T07:14:11;101923.72;;;43.87;3.77
70302;BME280;57706;56.326;43.882;2023-04-09T07:16:37;101925.53;;;44.28;3.41
70302;BME280;57706;56.326;43.882;2023-04-09T07:19:03;101923.47;;;44.96;3.50
70302;BME280;57706;56.326;43.882;2023-04-09T07:21:28;101920.47;;;44.50;3.16
70302;BME280;57706;56.326;43.882;2023-04-09T07:23:54;101919.31;;;45.46;3.14
70302;BME280;57706;56.326;43.882;2023-04-09T07:26:20;101913.09;;;45.99;3.10
70302;BME280;57706;56.326;43.882;2023-04-09T07:28:47;101910.50;;;45.87;2.89
70302;BME280;57706;56.326;43.882;2023-04-09T07:31:13;101904.22;;;45.04;2.85
70302;BME280;57706;56.326;43.882;2023-04-09T07:33:38;101900.16;;;46.34;2.55
70302;BME280;57706;56.326;43.882;2023-04-09T07:36:05;101897.44;;;43.49;2.91
70302;BME280;57706;56.326;43.882;2023-04-09T07:38:31;101908.34;;;44.74;3.07
70302;BME280;57706;56.326;43.882;2023-04-09T07:40:57;101899.88;;;45.69;2.56
70302;BME280;57706;56.326;43.882;2023-04-09T07:43:23;101895.16;;;44.87;2.84
70302;BME280;57706;56.326;43.882;2023-04-09T07:45:49;101899.34;;;45.60;2.55
70302;BME280;57706;56.326;43.882;2023-04-09T07:48:16;101901.84;;;41.26;3.37
70302;BME280;57706;56.326;43.882;2023-04-09T07:50:42;101908.00;;;41.78;3.09
70302;BME280;57706;56.326;43.882;2023-04-09T07:53:10;101893.69;;;42.47;3.21
70302;BME280;57706;56.326;43.882;2023-04-09T07:55:36;101897.53;;;43.69;2.80
70302;BME280;57706;56.326;43.882;2023-04-09T07:58:02;101896.22;;;43.95;2.36
70302;BME280;57706;56.326;43.882;2023-04-09T08:00:29;101898.19;;;43.78;2.21
70302;BME280;57706;56.326;43.882;2023-04-09T08:02:55;101891.66;;;42.85;2.80
70302;BME280;57706;56.326;43.882;2023-04-09T08:05:22;101885.34;;;40.96;3.56
70302;BME280;57706;56.326;43.882;2023-04-09T08:07:49;101887.69;;;42.57;3.03
70302;BME280;57706;56.326;43.882;2023-04-09T08:10:15;101884.16;;;42.98;3.17
70302;BME280;57706;56.326;43.882;2023-04-09T08:12:42;101884.03;;;44.48;2.47
70302;BME280;57706;56.326;43.882;2023-04-09T08:15:08;101873.06;;;44.91;2.30
70302;BME280;57706;56.326;43.882;2023-04-09T08:17:34;101879.13;;;45.16;2.16
70302;BME280;57706;56.326;43.882;2023-04-09T08:20:04;101878.72;;;45.81;2.21
70302;BME280;57706;56.326;43.882;2023-04-09T08:22:30;101871.56;;;44.06;2.86
70302;BME280;57706;56.326;43.882;2023-04-09T08:24:56;101876.75;;;44.07;2.20
70302;BME280;57706;56.326;43.882;2023-04-09T08:27:23;101866.09;;;45.20;2.73
70302;BME280;57706;56.326;43.882;2023-04-09T08:29:49;101867.03;;;45.05;2.16
70302;BME280;57706;56.326;43.882;2023-04-09T08:32:15;101858.97;;;44.60;2.69
70302;BME280;57706;56.326;43.882;2023-04-09T08:34:41;101861.53;;;45.51;2.45
70302;BME280;57706;56.326;43.882;2023-04-09T08:37:07;101860.94;;;43.59;2.50
70302;BME280;57706;56.326;43.882;2023-04-09T08:39:33;101855.50;;;42.90;2.80
70302;BME280;57706;56.326;43.882;2023-04-09T08:42:00;101847.97;;;44.28;2.49
70302;BME280;57706;56.326;43.882;2023-04-09T08:44:27;101858.69;;;46.22;2.02
70302;BME280;57706;56.326;43.882;2023-04-09T08:46:54;101855.28;;;45.55;2.08
70302;BME280;57706;56.326;43.882;2023-04-09T08:49:20;101855.41;;;46.73;1.67
70302;BME280;57706;56.326;43.882;2023-04-09T08:51:46;101856.13;;;39.92;3.38
70302;BME280;57706;56.326;43.882;2023-04-09T08:54:16;101851.81;;;42.45;3.06
70302;BME280;57706;56.326;43.882;2023-04-09T08:56:45;101844.78;;;44.46;2.45
70302;BME280;57706;56.326;43.882;2023-04-09T08:59:14;101842.66;;;45.61;2.10
70302;BME280;57706;56.326;43.882;2023-04-09T09:01:41;101840.81;;;47.18;1.66
70302;BME280;57706;56.326;43.882;2023-04-09T09:04:08;101828.16;;;45.95;1.92
70302;BME280;57706;56.326;43.882;2023-04-09T09:06:38;101839.06;;;44.19;2.14
70302;BME280;57706;56.326;43.882;2023-04-09T09:09:10;101825.63;;;43.85;2.75
70302;BME280;57706;56.326;43.882;2023-04-09T09:11:42;101825.63;;;45.86;1.82
70302;BME280;57706;56.326;43.882;2023-04-09T09:14:10;101827.13;;;45.33;2.28
70302;BME280;57706;56.326;43.882;2023-04-09T09:16:38;101831.72;;;40.21;3.35
70302;BME280;57706;56.326;43.882;2023-04-09T09:22:04;101827.88;;;44.51;2.20
70302;BME280;57706;56.326;43.882;2023-04-09T09:24:31;101831.56;;;45.61;2.16
70302;BME280;57706;56.326;43.882;2023-04-09T09:26:58;101818.31;;;46.58;2.08
70302;BME280;57706;56.326;43.882;2023-04-09T09:29:25;101816.28;;;47.31;2.29
70302;BME280;57706;56.326;43.882;2023-04-09T09:31:53;101813.69;;;46.39;1.81
70302;BME280;57706;56.326;43.882;2023-04-09T09:34:21;101811.25;;;47.03;2.20
70302;BME280;57706;56.326;43.882;2023-04-09T09:36:47;101806.00;;;46.59;2.46
70302;BME280;57706;56.326;43.882;2023-04-09T09:39:14;101817.47;;;46.24;2.14
70302;BME280;57706;56.326;43.882;2023-04-09T09:41:45;101807.47;;;46.50;1.91
70302;BME280;57706;56.326;43.882;2023-04-09T09:44:30;101808.41;;;44.11;2.20
70302;BME280;57706;56.326;43.882;2023-04-09T09:46:57;101805.00;;;44.54;2.13
70302;BME280;57706;56.326;43.882;2023-04-09T09:49:23;101813.53;;;45.74;2.06
70302;BME280;57706;56.326;43.882;2023-04-09T09:51:49;101807.25;;;45.77;1.87
70302;BME280;57706;56.326;43.882;2023-04-09T09:54:18;101803.09;;;45.64;1.82
70302;BME280;57706;56.326;43.882;2023-04-09T09:56:50;101799.56;;;45.94;1.94
70302;BME280;57706;56.326;43.882;2023-04-09T09:59:22;101796.81;;;46.21;1.81
70302;BME280;57706;56.326;43.882;2023-04-09T10:02:04;101786.88;;;43.53;2.45
70302;BME280;57706;56.326;43.882;2023-04-09T10:04:34;101791.56;;;44.95;2.19
70302;BME280;57706;56.326;43.882;2023-04-09T10:07:04;101795.44;;;45.34;2.32
70302;BME280;57706;56.326;43.882;2023-04-09T10:09:30;101785.69;;;45.67;1.81
70302;BME280;57706;56.326;43.882;2023-04-09T10:11:58;101791.47;;;45.82;2.11
70302;BME280;57706;56.326;43.882;2023-04-09T10:14:25;101786.97;;;46.62;1.93
70302;BME280;57706;56.326;43.882;2023-04-09T10:16:53;101784.41;;;45.14;1.83
70302;BME280;57706;56.326;43.882;2023-04-09T10:19:20;101785.66;;;45.40;1.99
70302;BME280;57706;56.326;43.882;2023-04-09T10:21:52;101774.66;;;41.99;2.87
70302;BME280;57706;56.326;43.882;2023-04-09T10:24:21;101770.63;;;42.62;2.53
70302;BME280;57706;56.326;43.882;2023-04-09T10:26:47;101773.53;;;40.52;3.04
70302;BME280;57706;56.326;43.882;2023-04-09T10:29:14;101774.28;;;40.62;3.28
70302;BME280;57706;56.326;43.882;2023-04-09T10:32:01;101768.63;;;38.00;3.96
70302;BME280;57706;56.326;43.882;2023-04-09T10:34:28;101773.31;;;41.34;3.18
70302;BME280;57706;56.326;43.882;2023-04-09T10:36:58;101765.63;;;43.57;2.71
70302;BME280;57706;56.326;43.882;2023-04-09T10:39:30;101759.06;;;44.53;2.21
70302;BME280;57706;56.326;43.882;2023-04-09T10:42:00;101764.63;;;44.73;2.38
70302;BME280;57706;56.326;43.882;2023-04-09T10:44:32;101764.06;;;44.63;2.40
70302;BME280;57706;56.326;43.882;2023-04-09T10:47:02;101758.75;;;43.35;2.51
70302;BME280;57706;56.326;43.882;2023-04-09T10:49:35;101760.00;;;43.85;2.47
70302;BME280;57706;56.326;43.882;2023-04-09T10:52:05;101756.97;;;43.91;2.31
70302;BME280;57706;56.326;43.882;2023-04-09T10:59:36;101747.47;;;40.71;3.14
70302;BME280;57706;56.326;43.882;2023-04-09T11:02:06;101752.69;;;41.06;3.07
70302;BME280;57706;56.326;43.882;2023-04-09T11:07:21;101757.81;;;41.29;2.98
70302;BME280;57706;56.326;43.882;2023-04-09T11:09:48;101748.34;;;41.76;3.50
70302;BME280;57706;56.326;43.882;2023-04-09T11:12:14;101747.97;;;41.78;3.03
70302;BME280;57706;56.326;43.882;2023-04-09T11:14:39;101754.00;;;40.45;3.19
70302;BME280;57706;56.326;43.882;2023-04-09T11:17:05;101743.50;;;37.12;4.39
70302;BME280;57706;56.326;43.882;2023-04-09T11:19:34;101739.03;;;38.37;3.90
70302;BME280;57706;56.326;43.882;2023-04-09T11:22:03;101738.72;;;37.90;4.35
70302;BME280;57706;56.326;43.882;2023-04-09T11:24:43;101733.59;;;39.56;3.79
70302;BME280;57706;56.326;43.882;2023-04-09T11:27:09;101727.56;;;39.23;3.83
70302;BME280;57706;56.326;43.882;2023-04-09T11:29:35;101736.56;;;40.11;3.93
70302;BME280;57706;56.326;43.882;2023-04-09T11:32:01;101725.38;;;39.86;3.12
70302;BME280;57706;56.326;43.882;2023-04-09T11:34:32;101733.25;;;39.96;3.25
70302;BME280;57706;56.326;43.882;2023-04-09T11:36:58;101721.97;;;40.62;3.58
70302;BME280;57706;56.326;43.882;2023-04-09T11:39:29;101713.34;;;39.99;3.63
70302;BME280;57706;56.326;43.882;2023-04-09T11:41:55;101714.75;;;38.04;4.88
70302;BME280;57706;56.326;43.882;2023-04-09T11:44:22;101719.06;;;35.58;5.25
70302;BME280;57706;56.326;43.882;2023-04-09T11:46:48;101719.00;;;33.26;5.72
70302;BME280;57706;56.326;43.882;2023-04-09T11:49:16;101710.56;;;32.26;6.28
70302;BME280;57706;56.326;43.882;2023-04-09T11:51:42;101718.13;;;30.00;7.61
70302;BME280;57706;56.326;43.882;2023-04-09T11:54:08;101712.25;;;30.67;7.35
70302;BME280;57706;56.326;43.882;2023-04-09T11:56:36;101719.03;;;32.14;6.44
70302;BME280;57706;56.326;43.882;2023-04-09T11:59:02;101721.56;;;33.41;5.93
70302;BME280;57706;56.326;43.882;2023-04-09T12:01:32;101713.34;;;33.52;5.77
70302;BME280;57706;56.326;43.882;2023-04-09T12:03:59;101706.34;;;34.18;5.42
70302;BME280;57706;56.326;43.882;2023-04-09T12:06:25;101713.72;;;35.00;5.39
70302;BME280;57706;56.326;43.882;2023-04-09T12:08:55;101702.38;;;35.59;5.68
70302;BME280;57706;56.326;43.882;2023-04-09T12:11:26;101704.00;;;35.88;5.11
70302;BME280;57706;56.326;43.882;2023-04-09T12:14:03;101691.75;;;34.72;5.33
70302;BME280;57706;56.326;43.882;2023-04-09T12:16:30;101696.28;;;34.19;5.57
70302;BME280;57706;56.326;43.882;2023-04-09T12:19:06;101694.00;;;34.26;5.81
70302;BME280;57706;56.326;43.882;2023-04-09T12:21:48;101694.03;;;34.02;6.02
70302;BME280;57706;56.326;43.882;2023-04-09T12:24:15;101690.38;;;33.87;6.06
70302;BME280;57706;56.326;43.882;2023-04-09T12:26:42;101694.97;;;34.74;5.49
70302;BME280;57706;56.326;43.882;2023-04-09T12:29:08;101686.03;;;34.49;5.51
70302;BME280;57706;56.326;43.882;2023-04-09T12:31:33;101682.19;;;35.08;5.61
70302;BME280;57706;56.326;43.882;2023-04-09T12:34:00;101679.25;;;35.51;5.38
70302;BME280;57706;56.326;43.882;2023-04-09T12:36:26;101677.28;;;35.24;5.28
70302;BME280;57706;56.326;43.882;2023-04-09T12:38:52;101681.16;;;35.37;5.52
70302;BME280;57706;56.326;43.882;2023-04-09T12:41:18;101678.13;;;35.05;5.53
70302;BME280;57706;56.326;43.882;2023-04-09T12:43:43;101674.88;;;35.03;5.98
70302;BME280;57706;56.326;43.882;2023-04-09T12:46:09;101670.81;;;34.67;5.78
70302;BME280;57706;56.326;43.882;2023-04-09T12:48:35;101665.53;;;34.32;5.52
70302;BME280;57706;56.326;43.882;2023-04-09T12:51:01;101673.63;;;34.18;6.00
70302;BME280;57706;56.326;43.882;2023-04-09T12:53:27;101663.34;;;33.02;6.66
70302;BME280;57706;56.326;43.882;2023-04-09T12:55:53;101671.88;;;33.25;6.73
70302;BME280;57706;56.326;43.882;2023-04-09T12:58:19;101666.56;;;33.69;6.72
70302;BME280;57706;56.326;43.882;2023-04-09T13:00:44;101664.47;;;34.09;6.31
70302;BME280;57706;56.326;43.882;2023-04-09T13:03:10;101666.34;;;34.91;5.88
70302;BME280;57706;56.326;43.882;2023-04-09T13:05:36;101669.88;;;35.72;5.29
70302;BME280;57706;56.326;43.882;2023-04-09T13:08:02;101654.84;;;36.62;5.06
70302;BME280;57706;56.326;43.882;2023-04-09T13:10:29;101654.47;;;37.00;4.93
70302;BME280;57706;56.326;43.882;2023-04-09T13:12:55;101660.25;;;35.88;5.25
70302;BME280;57706;56.326;43.882;2023-04-09T13:15:21;101652.59;;;37.10;4.79
70302;BME280;57706;56.326;43.882;2023-04-09T13:17:47;101650.44;;;37.29;4.78
70302;BME280;57706;56.326;43.882;2023-04-09T13:20:13;101646.38;;;36.95;4.86